createdAt,value
2023-05-24T00:00:23.145Z,8.53
2023-05-24T00:05:26.994Z,9.30
2023-05-24T00:10:30.782Z,9.70
2023-05-24T00:15:35.723Z,9.30
2023-05-24T00:20:39.416Z,9.63
2023-05-24T00:25:44.208Z,9.52
2023-05-24T00:30:49.278Z,10.10
2023-05-24T00:35:56.504Z,10.20
2023-05-24T00:41:01.548Z,9.45
2023-05-24T00:46:18.030Z,9.68
2023-05-24T00:51:22.672Z,9.07
2023-05-24T00:56:26.916Z,9.40
2023-05-24T01:01:32.876Z,9.80
2023-05-24T01:06:45.086Z,9.43
2023-05-24T01:11:59.966Z,9.18
2023-05-24T01:17:10.429Z,10.10
2023-05-24T01:22:25.914Z,9.32
2023-05-24T01:27:33.280Z,9.52
2023-05-24T01:32:36.977Z,9.52
2023-05-24T01:37:40.547Z,9.50
2023-05-24T01:42:50.325Z,10.63
2023-05-24T01:48:06.052Z,10.45
2023-05-24T01:53:14.231Z,10.77
2023-05-24T01:58:22.743Z,10.30
2023-05-24T02:03:26.422Z,10.35
2023-05-24T02:08:30.036Z,10.27
2023-05-24T02:13:35.030Z,9.27
2023-05-24T02:18:38.576Z,9.05
2023-05-24T02:23:42.026Z,9.45
2023-05-24T02:28:48.450Z,9.07
2023-05-24T02:33:52.212Z,9.20
2023-05-24T02:38:56.956Z,9.10
2023-05-24T02:44:01.876Z,7.13
2023-05-24T02:49:06.068Z,7.70
2023-05-24T02:54:09.669Z,7.80
2023-05-24T02:59:14.737Z,8.40
2023-05-24T03:04:18.253Z,8.98
2023-05-24T03:09:21.858Z,8.13
2023-05-24T03:14:26.793Z,8.87
2023-05-24T03:19:30.358Z,8.23
2023-05-24T03:24:34.737Z,9.07
2023-05-24T03:29:39.710Z,8.35
2023-05-24T03:34:43.197Z,8.27
2023-05-24T03:39:47.490Z,8.50
2023-05-24T03:44:52.523Z,9.48
2023-05-24T03:49:57.119Z,9.30
2023-05-24T03:55:00.717Z,7.33
2023-05-24T04:00:07.312Z,8.17
2023-05-24T04:05:12.346Z,7.07
2023-05-24T04:10:16.209Z,6.72
2023-05-24T04:15:21.497Z,6.72
2023-05-24T04:20:25.924Z,6.38
2023-05-24T04:25:30.839Z,7.30
2023-05-24T04:30:36.939Z,5.80
2023-05-24T04:35:40.923Z,5.95
2023-05-24T04:40:44.755Z,5.10
2023-05-24T04:45:50.072Z,4.85
2023-05-24T04:50:53.942Z,5.05
2023-05-24T04:55:57.499Z,4.97
2023-05-24T05:01:03.021Z,4.57
2023-05-24T05:06:08.859Z,4.70
2023-05-24T05:11:12.633Z,5.10
2023-05-24T05:16:18.130Z,5.35
2023-05-24T05:21:21.754Z,4.25
2023-05-24T05:26:25.293Z,5.85
2023-05-24T05:31:31.518Z,5.82
2023-05-24T05:36:37.306Z,5.35
2023-05-24T05:41:45.764Z,5.80
2023-05-24T05:46:50.992Z,5.53
2023-05-24T05:51:54.963Z,6.28
2023-05-24T05:57:01.506Z,5.57
2023-05-24T06:02:07.903Z,5.53
2023-05-24T06:07:11.443Z,5.57
2023-05-24T06:12:14.993Z,6.10
2023-05-24T06:17:24.730Z,6.10
2023-05-24T06:22:29.967Z,5.95
2023-05-24T06:27:33.789Z,5.72
2023-05-24T06:32:38.744Z,5.95
2023-05-24T06:37:43.171Z,5.25
2023-05-24T06:42:48.628Z,5.35
2023-05-24T06:47:53.841Z,5.13
2023-05-24T06:52:58.587Z,4.80
2023-05-24T06:58:02.599Z,5.43
2023-05-24T07:03:07.954Z,5.90
2023-05-24T07:08:11.766Z,5.80
2023-05-24T07:13:15.403Z,6.10
2023-05-24T07:18:20.333Z,5.60
2023-05-24T07:23:23.879Z,6.13
2023-05-24T07:28:27.787Z,5.57
2023-05-24T07:38:36.661Z,6.43
2023-05-24T07:48:44.838Z,6.07
2023-05-24T07:53:48.407Z,5.85
2023-05-24T07:58:52.175Z,5.63
2023-05-24T08:09:02.432Z,5.00
2023-05-24T08:14:05.989Z,4.80
2023-05-24T08:19:10.905Z,5.20
2023-05-24T08:24:14.624Z,4.93
2023-05-24T08:34:23.138Z,5.70
2023-05-24T08:39:26.929Z,5.65
2023-05-24T08:49:37.399Z,6.30
2023-05-24T08:54:42.113Z,6.93
2023-05-24T08:59:46.244Z,7.50
2023-05-24T09:04:53.577Z,8.05
2023-05-24T09:10:01.759Z,7.45
2023-05-24T09:15:09.709Z,7.57
2023-05-24T09:20:15.285Z,6.57
2023-05-24T09:25:20.520Z,7.25
2023-05-24T09:30:24.205Z,6.90
2023-05-24T09:35:29.877Z,7.05
2023-05-24T09:40:33.711Z,6.47
2023-05-24T09:50:47.680Z,7.75
2023-05-24T09:55:52.039Z,6.88
2023-05-24T10:01:06.729Z,7.57
2023-05-24T10:06:14.254Z,8.07
2023-05-24T10:11:17.824Z,7.95
2023-05-24T10:16:21.766Z,7.57
2023-05-24T10:21:33.022Z,7.25
2023-05-24T10:26:40.062Z,6.85
2023-05-24T10:31:45.200Z,8.05
2023-05-24T10:36:50.675Z,7.93
2023-05-24T10:41:58.096Z,6.60
2023-05-24T10:47:12.429Z,6.50
2023-05-24T10:52:17.630Z,7.38
2023-05-24T10:57:25.800Z,6.75
2023-05-24T11:02:30.048Z,6.82
2023-05-24T11:07:46.691Z,6.57
2023-05-24T11:12:59.350Z,6.43
2023-05-24T11:18:16.437Z,6.38
2023-05-24T11:23:21.906Z,6.50
2023-05-24T11:28:25.835Z,6.47
2023-05-24T11:33:29.524Z,6.78
2023-05-24T11:38:36.863Z,6.50
2023-05-24T11:43:41.475Z,6.10
2023-05-24T11:48:44.987Z,7.45
2023-05-24T11:53:51.291Z,7.60
2023-05-24T11:59:08.577Z,7.40
2023-05-24T12:04:13.215Z,7.60
2023-05-24T12:09:18.998Z,8.45
2023-05-24T12:14:26.443Z,8.52
2023-05-24T12:19:35.156Z,8.57
2023-05-24T12:24:40.916Z,8.65
2023-05-24T12:29:44.392Z,9.52
2023-05-24T12:34:50.896Z,9.65
2023-05-24T12:39:55.801Z,9.25
2023-05-24T12:44:59.329Z,8.95
2023-05-24T12:50:02.945Z,8.35
2023-05-24T12:55:09.919Z,8.27
2023-05-24T13:00:16.153Z,9.45
2023-05-24T13:05:20.209Z,8.90
2023-05-24T13:10:25.556Z,9.05
2023-05-24T13:15:29.083Z,8.82
2023-05-24T13:20:32.686Z,8.38
2023-05-24T13:25:37.735Z,8.85
2023-05-24T13:30:41.657Z,8.40
2023-05-24T13:35:45.596Z,8.98
2023-05-24T13:45:54.319Z,8.90
2023-05-24T13:50:57.894Z,8.70
2023-05-24T13:56:02.930Z,9.70
2023-05-24T14:01:06.482Z,8.40
2023-05-24T14:06:11.519Z,7.90
2023-05-24T14:16:21.411Z,8.70
2023-05-24T14:21:27.326Z,8.02
2023-05-24T14:26:32.976Z,7.72
2023-05-24T14:31:42.470Z,8.80
2023-05-24T14:36:49.178Z,8.20
2023-05-24T14:41:57.969Z,8.25
2023-05-24T14:47:01.630Z,8.48
2023-05-24T14:52:05.260Z,7.93
2023-05-24T14:57:10.223Z,5.60
2023-05-24T15:02:13.816Z,5.07
2023-05-24T15:07:17.367Z,5.65
2023-05-24T15:12:22.375Z,5.03
2023-05-24T15:17:26.675Z,5.32
2023-05-24T15:22:30.493Z,4.90
2023-05-24T15:27:35.593Z,4.55
2023-05-24T15:32:39.188Z,4.88
2023-05-24T15:37:43.754Z,4.68
2023-05-24T15:42:48.674Z,5.18
2023-05-24T15:47:52.300Z,5.15
2023-05-24T15:52:56.462Z,4.88
2023-05-24T15:58:01.536Z,5.47
2023-05-24T16:03:05.526Z,7.22
2023-05-24T16:08:11.059Z,7.00
2023-05-24T16:13:16.636Z,7.50
2023-05-24T16:18:21.626Z,7.30
2023-05-24T16:23:25.177Z,8.02
2023-05-24T16:28:30.183Z,8.50
2023-05-24T16:33:33.757Z,8.38
2023-05-24T16:38:37.755Z,8.60
2023-05-24T16:43:42.928Z,8.80
2023-05-24T16:48:46.558Z,8.55
2023-05-24T16:53:50.341Z,9.52
2023-05-24T17:09:02.107Z,10.90
2023-05-24T17:14:07.242Z,10.73
2023-05-24T17:19:12.896Z,9.63
2023-05-24T17:24:16.921Z,10.32
2023-05-24T17:29:22.150Z,9.73
2023-05-24T17:34:26.058Z,9.75
2023-05-24T17:39:29.611Z,9.85
2023-05-24T17:44:34.575Z,9.30
2023-05-24T17:49:38.202Z,9.27
2023-05-24T17:54:41.875Z,9.20
2023-05-24T17:59:46.774Z,10.63
2023-05-24T18:04:50.443Z,9.20
2023-05-24T18:09:54.036Z,10.68
2023-05-24T18:14:59.402Z,10.55
2023-05-24T18:20:03.030Z,9.90
2023-05-24T18:25:08.798Z,10.50
2023-05-24T18:30:14.608Z,10.40
2023-05-24T18:35:20.658Z,10.82
2023-05-24T18:40:24.651Z,10.50
2023-05-24T18:45:29.701Z,10.07
2023-05-24T18:50:33.281Z,10.57
2023-05-24T18:55:38.105Z,11.48
2023-05-24T19:00:43.137Z,12.77
2023-05-24T19:05:47.048Z,12.32
2023-05-24T19:10:50.955Z,12.27
2023-05-24T19:15:55.991Z,11.93
2023-05-24T19:20:59.537Z,12.65
2023-05-24T19:26:03.106Z,13.00
2023-05-24T19:31:08.417Z,13.98
2023-05-24T19:36:11.929Z,14.60
2023-05-24T19:41:15.453Z,13.83
2023-05-24T19:46:20.526Z,13.70
2023-05-24T19:51:24.485Z,14.20
2023-05-24T19:56:28.198Z,15.73
2023-05-24T20:01:33.257Z,16.33
2023-05-24T20:06:37.905Z,16.10
2023-05-24T20:11:41.436Z,17.55
2023-05-24T20:16:46.609Z,18.40
2023-05-24T20:21:50.395Z,19.17
2023-05-24T20:26:54.749Z,18.65
2023-05-24T20:42:06.726Z,16.90
2023-05-24T20:47:12.194Z,17.02
2023-05-24T20:52:16.415Z,16.75
2023-05-24T21:02:28.803Z,13.73
2023-05-24T21:07:32.534Z,16.67
2023-05-24T21:12:36.149Z,16.25
2023-05-24T21:17:41.210Z,14.47
2023-05-24T21:22:46.225Z,15.15
2023-05-24T21:27:49.964Z,15.75
2023-05-24T21:32:55.015Z,14.98
2023-05-24T21:37:58.586Z,15.55
2023-05-24T21:43:02.090Z,17.30
2023-05-24T21:48:07.419Z,16.73
2023-05-24T21:53:11.018Z,17.00
2023-05-24T21:58:14.537Z,17.43
2023-05-24T22:03:19.722Z,17.00
2023-05-24T22:08:23.407Z,14.73
2023-05-24T22:13:28.030Z,15.47
2023-05-24T22:18:34.460Z,15.43
2023-05-24T22:23:38.123Z,14.55
2023-05-24T22:28:52.623Z,15.20
2023-05-24T22:39:05.379Z,19.20
2023-05-24T22:44:09.166Z,23.25
2023-05-24T22:49:14.928Z,22.83
2023-05-24T22:54:18.788Z,23.60
2023-05-24T22:59:22.306Z,23.55
2023-05-24T23:04:27.767Z,23.13
2023-05-24T23:09:34.886Z,24.75
2023-05-24T23:14:41.863Z,23.17
2023-05-24T23:19:50.498Z,22.65
2023-05-24T23:24:54.354Z,18.45
2023-05-24T23:29:57.897Z,17.47
2023-05-24T23:35:02.857Z,18.57
2023-05-24T23:40:08.742Z,17.27
2023-05-24T23:45:15.334Z,17.73
2023-05-24T23:50:22.754Z,18.65
2023-05-24T23:55:26.649Z,18.58
